Terminal Aerodrome Forecast
Issued by NWS Medford, OR

Home | Current Version | Previous Version | Text Only | Print | Product List | Glossary On
Versions: 1 2 3 4 5 6 7 8 9 10 11 12
000
FTUS46 KMFR 292300 RRA
TAFMFR
TAF
KMFR 292350Z 3000/3024 30012KT P6SM SKC
     FM300300 VRB04KT P6SM SKC
     FM302100 31013KT P6SM SCT060=

USA.gov is the U.S. government's official web portal to all federal, state and local government web resources and services.